sensor_id;sensor_type;location;lat;lon;timestamp;P1;durP1;ratioP1;P2;durP2;ratioP2
39486;SDS011;25173;50.430;18.926;2023-09-19T00:01:33;16.15;;;10.85;;
39486;SDS011;25173;50.430;18.926;2023-09-19T00:04:34;14.82;;;11.48;;
39486;SDS011;25173;50.430;18.926;2023-09-19T00:07:35;14.20;;;11.50;;
39486;SDS011;25173;50.430;18.926;2023-09-19T00:10:37;14.30;;;11.77;;
39486;SDS011;25173;50.430;18.926;2023-09-19T00:13:39;16.83;;;11.73;;
39486;SDS011;25173;50.430;18.926;2023-09-19T00:16:40;14.48;;;11.45;;
39486;SDS011;25173;50.430;18.926;2023-09-19T00:19:41;16.98;;;11.63;;
39486;SDS011;25173;50.430;18.926;2023-09-19T00:22:43;14.35;;;11.07;;
39486;SDS011;25173;50.430;18.926;2023-09-19T00:25:43;14.27;;;10.93;;
39486;SDS011;25173;50.430;18.926;2023-09-19T00:28:45;18.08;;;12.43;;
39486;SDS011;25173;50.430;18.926;2023-09-19T00:31:46;16.42;;;11.63;;
39486;SDS011;25173;50.430;18.926;2023-09-19T00:34:46;17.40;;;12.45;;
39486;SDS011;25173;50.430;18.926;2023-09-19T00:37:47;16.20;;;12.32;;
39486;SDS011;25173;50.430;18.926;2023-09-19T00:40:48;17.15;;;12.02;;
39486;SDS011;25173;50.430;18.926;2023-09-19T00:43:51;15.90;;;12.20;;
39486;SDS011;25173;50.430;18.926;2023-09-19T00:46:53;13.75;;;11.60;;
39486;SDS011;25173;50.430;18.926;2023-09-19T00:49:53;14.13;;;11.48;;
39486;SDS011;25173;50.430;18.926;2023-09-19T00:52:54;16.45;;;11.75;;
39486;SDS011;25173;50.430;18.926;2023-09-19T00:55:58;14.77;;;12.13;;
39486;SDS011;25173;50.430;18.926;2023-09-19T00:58:59;13.43;;;11.50;;
39486;SDS011;25173;50.430;18.926;2023-09-19T01:01:59;17.95;;;11.93;;
39486;SDS011;25173;50.430;18.926;2023-09-19T01:05:00;14.35;;;11.63;;
39486;SDS011;25173;50.430;18.926;2023-09-19T01:08:02;12.27;;;10.98;;
39486;SDS011;25173;50.430;18.926;2023-09-19T01:11:20;15.80;;;13.40;;
39486;SDS011;25173;50.430;18.926;2023-09-19T01:14:40;17.95;;;11.60;;
39486;SDS011;25173;50.430;18.926;2023-09-19T01:17:46;19.50;;;12.77;;
39486;SDS011;25173;50.430;18.926;2023-09-19T01:30:56;13.98;;;11.50;;
39486;SDS011;25173;50.430;18.926;2023-09-19T01:34:02;15.68;;;12.05;;
39486;SDS011;25173;50.430;18.926;2023-09-19T01:37:08;14.98;;;10.95;;
39486;SDS011;25173;50.430;18.926;2023-09-19T01:40:09;13.02;;;10.90;;
39486;SDS011;25173;50.430;18.926;2023-09-19T01:43:18;13.95;;;11.20;;
39486;SDS011;25173;50.430;18.926;2023-09-19T01:46:25;15.73;;;12.25;;
39486;SDS011;25173;50.430;18.926;2023-09-19T01:49:50;15.68;;;11.63;;
39486;SDS011;25173;50.430;18.926;2023-09-19T01:53:04;13.98;;;12.43;;
39486;SDS011;25173;50.430;18.926;2023-09-19T01:56:10;15.07;;;12.15;;
39486;SDS011;25173;50.430;18.926;2023-09-19T01:59:21;14.95;;;11.90;;
39486;SDS011;25173;50.430;18.926;2023-09-19T02:02:27;15.43;;;12.63;;
39486;SDS011;25173;50.430;18.926;2023-09-19T02:05:29;19.17;;;12.50;;
39486;SDS011;25173;50.430;18.926;2023-09-19T02:08:30;15.02;;;11.68;;
39486;SDS011;25173;50.430;18.926;2023-09-19T02:11:33;21.27;;;11.80;;
39486;SDS011;25173;50.430;18.926;2023-09-19T02:14:34;15.90;;;12.13;;
39486;SDS011;25173;50.430;18.926;2023-09-19T02:17:37;15.40;;;12.60;;
39486;SDS011;25173;50.430;18.926;2023-09-19T02:20:39;17.05;;;12.55;;
39486;SDS011;25173;50.430;18.926;2023-09-19T02:23:40;16.13;;;12.93;;
39486;SDS011;25173;50.430;18.926;2023-09-19T02:26:41;16.27;;;12.32;;
39486;SDS011;25173;50.430;18.926;2023-09-19T02:29:43;18.52;;;12.00;;
39486;SDS011;25173;50.430;18.926;2023-09-19T02:32:44;18.27;;;12.77;;
39486;SDS011;25173;50.430;18.926;2023-09-19T02:35:45;15.30;;;12.15;;
39486;SDS011;25173;50.430;18.926;2023-09-19T02:38:46;17.45;;;12.85;;
39486;SDS011;25173;50.430;18.926;2023-09-19T02:41:46;14.73;;;11.52;;
39486;SDS011;25173;50.430;18.926;2023-09-19T02:44:47;14.85;;;12.38;;
39486;SDS011;25173;50.430;18.926;2023-09-19T02:47:48;17.35;;;13.10;;
39486;SDS011;25173;50.430;18.926;2023-09-19T02:50:49;13.77;;;12.27;;
39486;SDS011;25173;50.430;18.926;2023-09-19T02:53:50;15.68;;;12.02;;
39486;SDS011;25173;50.430;18.926;2023-09-19T02:56:54;13.60;;;12.18;;
39486;SDS011;25173;50.430;18.926;2023-09-19T02:59:55;21.40;;;13.23;;
39486;SDS011;25173;50.430;18.926;2023-09-19T03:02:56;16.92;;;13.50;;
39486;SDS011;25173;50.430;18.926;2023-09-19T03:05:56;20.50;;;12.68;;
39486;SDS011;25173;50.430;18.926;2023-09-19T03:08:58;16.80;;;12.15;;
39486;SDS011;25173;50.430;18.926;2023-09-19T03:12:00;15.55;;;12.77;;
39486;SDS011;25173;50.430;18.926;2023-09-19T03:15:02;16.20;;;12.02;;
39486;SDS011;25173;50.430;18.926;2023-09-19T03:18:05;15.70;;;11.73;;
39486;SDS011;25173;50.430;18.926;2023-09-19T03:21:07;15.70;;;11.48;;
39486;SDS011;25173;50.430;18.926;2023-09-19T03:24:19;17.85;;;13.60;;
39486;SDS011;25173;50.430;18.926;2023-09-19T03:27:20;16.42;;;12.82;;
39486;SDS011;25173;50.430;18.926;2023-09-19T03:30:27;18.73;;;12.95;;
39486;SDS011;25173;50.430;18.926;2023-09-19T03:33:35;19.55;;;12.38;;
39486;SDS011;25173;50.430;18.926;2023-09-19T03:36:37;17.92;;;13.48;;
39486;SDS011;25173;50.430;18.926;2023-09-19T03:39:44;14.65;;;12.52;;
39486;SDS011;25173;50.430;18.926;2023-09-19T03:42:48;15.75;;;13.10;;
39486;SDS011;25173;50.430;18.926;2023-09-19T03:46:10;18.17;;;12.80;;
39486;SDS011;25173;50.430;18.926;2023-09-19T03:49:17;18.90;;;13.85;;
39486;SDS011;25173;50.430;18.926;2023-09-19T03:52:18;14.98;;;12.77;;
39486;SDS011;25173;50.430;18.926;2023-09-19T03:55:23;16.38;;;14.23;;
39486;SDS011;25173;50.430;18.926;2023-09-19T03:58:24;17.08;;;14.50;;
39486;SDS011;25173;50.430;18.926;2023-09-19T04:01:24;15.10;;;13.50;;
39486;SDS011;25173;50.430;18.926;2023-09-19T04:04:26;17.02;;;12.80;;
39486;SDS011;25173;50.430;18.926;2023-09-19T04:07:26;17.55;;;13.75;;
39486;SDS011;25173;50.430;18.926;2023-09-19T04:10:29;19.17;;;13.77;;
39486;SDS011;25173;50.430;18.926;2023-09-19T04:13:31;20.17;;;13.50;;
39486;SDS011;25173;50.430;18.926;2023-09-19T04:16:31;17.27;;;13.93;;
39486;SDS011;25173;50.430;18.926;2023-09-19T04:19:32;18.52;;;14.25;;
39486;SDS011;25173;50.430;18.926;2023-09-19T04:22:32;16.73;;;13.65;;
39486;SDS011;25173;50.430;18.926;2023-09-19T04:25:33;18.77;;;13.73;;
39486;SDS011;25173;50.430;18.926;2023-09-19T04:28:33;17.67;;;13.23;;
39486;SDS011;25173;50.430;18.926;2023-09-19T04:31:34;17.70;;;14.23;;
39486;SDS011;25173;50.430;18.926;2023-09-19T04:34:35;18.38;;;14.55;;
39486;SDS011;25173;50.430;18.926;2023-09-19T04:37:36;18.50;;;13.95;;
39486;SDS011;25173;50.430;18.926;2023-09-19T04:40:41;16.45;;;13.15;;
39486;SDS011;25173;50.430;18.926;2023-09-19T04:43:42;19.15;;;13.85;;
39486;SDS011;25173;50.430;18.926;2023-09-19T04:46:42;21.13;;;14.82;;
39486;SDS011;25173;50.430;18.926;2023-09-19T04:49:43;27.05;;;16.45;;
39486;SDS011;25173;50.430;18.926;2023-09-19T04:52:44;21.17;;;13.70;;
39486;SDS011;25173;50.430;18.926;2023-09-19T04:55:45;19.98;;;15.30;;
39486;SDS011;25173;50.430;18.926;2023-09-19T04:58:46;24.27;;;15.65;;
39486;SDS011;25173;50.430;18.926;2023-09-19T05:01:47;25.90;;;16.52;;
39486;SDS011;25173;50.430;18.926;2023-09-19T05:04:47;21.80;;;16.42;;
39486;SDS011;25173;50.430;18.926;2023-09-19T05:07:48;24.45;;;16.48;;
39486;SDS011;25173;50.430;18.926;2023-09-19T05:10:48;21.40;;;16.05;;
39486;SDS011;25173;50.430;18.926;2023-09-19T05:13:49;20.17;;;14.95;;
39486;SDS011;25173;50.430;18.926;2023-09-19T05:16:50;22.30;;;13.88;;
39486;SDS011;25173;50.430;18.926;2023-09-19T05:19:51;23.40;;;15.52;;
39486;SDS011;25173;50.430;18.926;2023-09-19T05:23:02;17.33;;;14.32;;
39486;SDS011;25173;50.430;18.926;2023-09-19T05:26:05;22.45;;;13.25;;
39486;SDS011;25173;50.430;18.926;2023-09-19T05:29:06;16.27;;;13.50;;
39486;SDS011;25173;50.430;18.926;2023-09-19T05:32:09;16.95;;;13.45;;
39486;SDS011;25173;50.430;18.926;2023-09-19T05:35:10;19.25;;;13.40;;
39486;SDS011;25173;50.430;18.926;2023-09-19T05:38:13;16.40;;;12.60;;
39486;SDS011;25173;50.430;18.926;2023-09-19T05:41:15;16.25;;;12.60;;
39486;SDS011;25173;50.430;18.926;2023-09-19T05:44:18;18.30;;;11.75;;
39486;SDS011;25173;50.430;18.926;2023-09-19T05:47:18;13.13;;;11.50;;
39486;SDS011;25173;50.430;18.926;2023-09-19T05:50:19;18.95;;;11.48;;
39486;SDS011;25173;50.430;18.926;2023-09-19T05:53:19;14.93;;;11.52;;
39486;SDS011;25173;50.430;18.926;2023-09-19T05:56:20;16.73;;;11.48;;
39486;SDS011;25173;50.430;18.926;2023-09-19T05:59:21;16.67;;;12.23;;
39486;SDS011;25173;50.430;18.926;2023-09-19T06:02:21;16.05;;;11.82;;
39486;SDS011;25173;50.430;18.926;2023-09-19T06:05:22;17.25;;;11.32;;
39486;SDS011;25173;50.430;18.926;2023-09-19T06:08:24;18.30;;;11.57;;
39486;SDS011;25173;50.430;18.926;2023-09-19T06:11:26;16.23;;;10.95;;
39486;SDS011;25173;50.430;18.926;2023-09-19T06:14:28;17.38;;;10.98;;
39486;SDS011;25173;50.430;18.926;2023-09-19T06:17:29;14.98;;;10.38;;
39486;SDS011;25173;50.430;18.926;2023-09-19T06:20:31;14.48;;;10.15;;
39486;SDS011;25173;50.430;18.926;2023-09-19T06:23:34;14.05;;;10.40;;
39486;SDS011;25173;50.430;18.926;2023-09-19T06:26:35;14.50;;;8.70;;
39486;SDS011;25173;50.430;18.926;2023-09-19T06:29:36;12.88;;;9.85;;
39486;SDS011;25173;50.430;18.926;2023-09-19T06:32:37;11.57;;;9.55;;
39486;SDS011;25173;50.430;18.926;2023-09-19T06:35:38;12.63;;;8.65;;
39486;SDS011;25173;50.430;18.926;2023-09-19T06:38:38;14.98;;;8.98;;
39486;SDS011;25173;50.430;18.926;2023-09-19T06:41:39;11.88;;;8.48;;
39486;SDS011;25173;50.430;18.926;2023-09-19T06:44:44;8.05;;;7.03;;
39486;SDS011;25173;50.430;18.926;2023-09-19T06:47:45;8.82;;;7.57;;
39486;SDS011;25173;50.430;18.926;2023-09-19T06:50:46;10.88;;;7.43;;
39486;SDS011;25173;50.430;18.926;2023-09-19T06:53:48;11.85;;;7.93;;
39486;SDS011;25173;50.430;18.926;2023-09-19T06:56:49;11.70;;;7.35;;
39486;SDS011;25173;50.430;18.926;2023-09-19T06:59:49;14.77;;;7.65;;
39486;SDS011;25173;50.430;18.926;2023-09-19T07:03:00;11.00;;;6.90;;
39486;SDS011;25173;50.430;18.926;2023-09-19T07:06:08;10.35;;;6.57;;
39486;SDS011;25173;50.430;18.926;2023-09-19T07:09:09;12.15;;;6.55;;
39486;SDS011;25173;50.430;18.926;2023-09-19T07:12:10;12.73;;;5.00;;
39486;SDS011;25173;50.430;18.926;2023-09-19T07:15:12;6.88;;;4.80;;
39486;SDS011;25173;50.430;18.926;2023-09-19T07:18:13;7.75;;;4.72;;
39486;SDS011;25173;50.430;18.926;2023-09-19T07:21:15;6.18;;;4.82;;
39486;SDS011;25173;50.430;18.926;2023-09-19T07:24:16;9.40;;;5.13;;
39486;SDS011;25173;50.430;18.926;2023-09-19T07:27:16;8.82;;;5.25;;
39486;SDS011;25173;50.430;18.926;2023-09-19T07:30:17;8.63;;;5.15;;
39486;SDS011;25173;50.430;18.926;2023-09-19T07:33:18;8.20;;;5.30;;
39486;SDS011;25173;50.430;18.926;2023-09-19T07:36:19;7.43;;;4.70;;
39486;SDS011;25173;50.430;18.926;2023-09-19T07:39:20;7.80;;;4.57;;
39486;SDS011;25173;50.430;18.926;2023-09-19T07:42:20;9.52;;;4.30;;
39486;SDS011;25173;50.430;18.926;2023-09-19T07:45:21;5.90;;;3.88;;
39486;SDS011;25173;50.430;18.926;2023-09-19T07:48:22;6.40;;;3.50;;
39486;SDS011;25173;50.430;18.926;2023-09-19T07:51:25;5.60;;;3.88;;
39486;SDS011;25173;50.430;18.926;2023-09-19T07:54:30;7.38;;;3.80;;
39486;SDS011;25173;50.430;18.926;2023-09-19T07:57:35;7.68;;;3.72;;
39486;SDS011;25173;50.430;18.926;2023-09-19T08:00:36;6.03;;;2.90;;
39486;SDS011;25173;50.430;18.926;2023-09-19T08:03:36;5.45;;;3.38;;
39486;SDS011;25173;50.430;18.926;2023-09-19T08:06:44;5.47;;;3.15;;
39486;SDS011;25173;50.430;18.926;2023-09-19T08:09:44;6.00;;;3.67;;
39486;SDS011;25173;50.430;18.926;2023-09-19T08:12:48;6.63;;;3.42;;
39486;SDS011;25173;50.430;18.926;2023-09-19T08:15:56;7.90;;;3.50;;
39486;SDS011;25173;50.430;18.926;2023-09-19T08:18:56;8.93;;;3.97;;
39486;SDS011;25173;50.430;18.926;2023-09-19T08:22:22;8.13;;;4.20;;
39486;SDS011;25173;50.430;18.926;2023-09-19T08:25:24;12.30;;;4.13;;
39486;SDS011;25173;50.430;18.926;2023-09-19T08:28:28;5.53;;;3.73;;
39486;SDS011;25173;50.430;18.926;2023-09-19T08:31:29;4.55;;;3.47;;
39486;SDS011;25173;50.430;18.926;2023-09-19T08:34:30;8.13;;;3.50;;
39486;SDS011;25173;50.430;18.926;2023-09-19T08:37:34;5.38;;;3.38;;
39486;SDS011;25173;50.430;18.926;2023-09-19T08:40:38;5.55;;;3.13;;
39486;SDS011;25173;50.430;18.926;2023-09-19T08:46:41;5.22;;;3.05;;
39486;SDS011;25173;50.430;18.926;2023-09-19T08:49:53;7.70;;;2.78;;
39486;SDS011;25173;50.430;18.926;2023-09-19T08:53:15;7.72;;;2.75;;
39486;SDS011;25173;50.430;18.926;2023-09-19T08:56:23;6.88;;;2.90;;
39486;SDS011;25173;50.430;18.926;2023-09-19T08:59:26;5.22;;;2.58;;
39486;SDS011;25173;50.430;18.926;2023-09-19T09:02:29;3.70;;;2.00;;
39486;SDS011;25173;50.430;18.926;2023-09-19T09:05:31;5.75;;;2.55;;
39486;SDS011;25173;50.430;18.926;2023-09-19T09:08:33;5.38;;;2.85;;
39486;SDS011;25173;50.430;18.926;2023-09-19T09:11:33;4.40;;;2.35;;
39486;SDS011;25173;50.430;18.926;2023-09-19T09:14:34;20.02;;;9.95;;
39486;SDS011;25173;50.430;18.926;2023-09-19T09:17:35;5.35;;;2.95;;
39486;SDS011;25173;50.430;18.926;2023-09-19T09:20:35;4.05;;;2.40;;
39486;SDS011;25173;50.430;18.926;2023-09-19T09:23:36;6.60;;;2.75;;
39486;SDS011;25173;50.430;18.926;2023-09-19T09:32:49;4.03;;;2.35;;
39486;SDS011;25173;50.430;18.926;2023-09-19T09:36:08;4.28;;;2.60;;
39486;SDS011;25173;50.430;18.926;2023-09-19T09:39:09;4.47;;;2.40;;
39486;SDS011;25173;50.430;18.926;2023-09-19T09:42:28;5.03;;;3.03;;
39486;SDS011;25173;50.430;18.926;2023-09-19T09:45:32;8.27;;;3.35;;
39486;SDS011;25173;50.430;18.926;2023-09-19T09:48:35;7.13;;;2.63;;
39486;SDS011;25173;50.430;18.926;2023-09-19T09:51:39;5.35;;;2.75;;
39486;SDS011;25173;50.430;18.926;2023-09-19T09:54:58;4.18;;;2.50;;
39486;SDS011;25173;50.430;18.926;2023-09-19T09:58:16;7.05;;;2.63;;
39486;SDS011;25173;50.430;18.926;2023-09-19T10:01:23;5.53;;;2.58;;
39486;SDS011;25173;50.430;18.926;2023-09-19T10:04:27;7.90;;;3.03;;
39486;SDS011;25173;50.430;18.926;2023-09-19T10:07:31;6.53;;;2.28;;
39486;SDS011;25173;50.430;18.926;2023-09-19T10:10:33;4.82;;;2.42;;
39486;SDS011;25173;50.430;18.926;2023-09-19T10:13:43;5.47;;;2.03;;
39486;SDS011;25173;50.430;18.926;2023-09-19T10:16:47;4.35;;;2.22;;
39486;SDS011;25173;50.430;18.926;2023-09-19T10:22:59;7.18;;;3.17;;
39486;SDS011;25173;50.430;18.926;2023-09-19T10:26:01;3.45;;;2.47;;
39486;SDS011;25173;50.430;18.926;2023-09-19T10:29:02;6.65;;;2.42;;
39486;SDS011;25173;50.430;18.926;2023-09-19T10:32:07;4.93;;;2.30;;
39486;SDS011;25173;50.430;18.926;2023-09-19T10:35:09;3.92;;;2.03;;
39486;SDS011;25173;50.430;18.926;2023-09-19T10:38:13;5.80;;;2.08;;
39486;SDS011;25173;50.430;18.926;2023-09-19T10:41:19;2.78;;;1.98;;
39486;SDS011;25173;50.430;18.926;2023-09-19T10:44:23;4.05;;;2.08;;
39486;SDS011;25173;50.430;18.926;2023-09-19T10:47:25;5.07;;;2.17;;
39486;SDS011;25173;50.430;18.926;2023-09-19T10:50:27;5.65;;;2.53;;
39486;SDS011;25173;50.430;18.926;2023-09-19T10:53:40;8.35;;;2.78;;
39486;SDS011;25173;50.430;18.926;2023-09-19T10:56:48;6.78;;;2.75;;
39486;SDS011;25173;50.430;18.926;2023-09-19T11:00:06;9.90;;;2.40;;
39486;SDS011;25173;50.430;18.926;2023-09-19T11:03:23;6.07;;;2.40;;
39486;SDS011;25173;50.430;18.926;2023-09-19T11:06:30;3.92;;;2.30;;
39486;SDS011;25173;50.430;18.926;2023-09-19T11:12:54;4.43;;;2.65;;
39486;SDS011;25173;50.430;18.926;2023-09-19T11:18:56;5.78;;;2.80;;
39486;SDS011;25173;50.430;18.926;2023-09-19T11:21:58;6.45;;;2.90;;
39486;SDS011;25173;50.430;18.926;2023-09-19T11:25:19;7.25;;;3.00;;
39486;SDS011;25173;50.430;18.926;2023-09-19T11:28:32;12.00;;;3.13;;
39486;SDS011;25173;50.430;18.926;2023-09-19T11:31:41;9.32;;;3.75;;
39486;SDS011;25173;50.430;18.926;2023-09-19T11:34:46;8.65;;;3.45;;
39486;SDS011;25173;50.430;18.926;2023-09-19T11:41:18;4.97;;;3.90;;
39486;SDS011;25173;50.430;18.926;2023-09-19T11:44:31;7.13;;;3.80;;
39486;SDS011;25173;50.430;18.926;2023-09-19T11:47:34;6.07;;;3.83;;
39486;SDS011;25173;50.430;18.926;2023-09-19T11:50:36;6.65;;;4.18;;
39486;SDS011;25173;50.430;18.926;2023-09-19T11:53:43;4.28;;;3.75;;
39486;SDS011;25173;50.430;18.926;2023-09-19T11:56:45;7.90;;;4.38;;
39486;SDS011;25173;50.430;18.926;2023-09-19T11:59:49;9.05;;;4.13;;
39486;SDS011;25173;50.430;18.926;2023-09-19T12:02:50;5.63;;;3.60;;
39486;SDS011;25173;50.430;18.926;2023-09-19T12:05:54;5.60;;;3.85;;
39486;SDS011;25173;50.430;18.926;2023-09-19T12:08:54;7.13;;;4.30;;
39486;SDS011;25173;50.430;18.926;2023-09-19T12:11:57;6.47;;;4.57;;
39486;SDS011;25173;50.430;18.926;2023-09-19T12:14:58;7.80;;;4.55;;
39486;SDS011;25173;50.430;18.926;2023-09-19T12:17:58;6.45;;;4.07;;
39486;SDS011;25173;50.430;18.926;2023-09-19T12:20:59;6.75;;;4.65;;
39486;SDS011;25173;50.430;18.926;2023-09-19T12:27:06;4.70;;;3.55;;
39486;SDS011;25173;50.430;18.926;2023-09-19T12:30:07;7.80;;;3.75;;
39486;SDS011;25173;50.430;18.926;2023-09-19T12:33:18;4.70;;;3.90;;
39486;SDS011;25173;50.430;18.926;2023-09-19T12:36:26;5.57;;;3.60;;
39486;SDS011;25173;50.430;18.926;2023-09-19T12:39:29;8.52;;;3.80;;
39486;SDS011;25173;50.430;18.926;2023-09-19T12:42:31;7.95;;;3.72;;
39486;SDS011;25173;50.430;18.926;2023-09-19T12:45:35;8.40;;;3.80;;
39486;SDS011;25173;50.430;18.926;2023-09-19T12:48:37;7.60;;;3.55;;
39486;SDS011;25173;50.430;18.926;2023-09-19T12:51:45;5.25;;;3.15;;
39486;SDS011;25173;50.430;18.926;2023-09-19T12:54:49;7.18;;;3.78;;
39486;SDS011;25173;50.430;18.926;2023-09-19T12:58:11;8.00;;;3.30;;
39486;SDS011;25173;50.430;18.926;2023-09-19T13:01:15;5.45;;;3.78;;
39486;SDS011;25173;50.430;18.926;2023-09-19T13:04:17;8.77;;;3.33;;
39486;SDS011;25173;50.430;18.926;2023-09-19T13:07:45;6.00;;;3.45;;
39486;SDS011;25173;50.430;18.926;2023-09-19T13:11:06;5.65;;;3.58;;
39486;SDS011;25173;50.430;18.926;2023-09-19T13:17:20;4.45;;;3.28;;
39486;SDS011;25173;50.430;18.926;2023-09-19T13:20:26;5.63;;;2.97;;
39486;SDS011;25173;50.430;18.926;2023-09-19T13:23:27;4.82;;;2.83;;
39486;SDS011;25173;50.430;18.926;2023-09-19T13:26:28;5.68;;;2.55;;
39486;SDS011;25173;50.430;18.926;2023-09-19T13:29:28;4.10;;;2.47;;
39486;SDS011;25173;50.430;18.926;2023-09-19T13:32:29;4.13;;;2.47;;
39486;SDS011;25173;50.430;18.926;2023-09-19T13:35:29;5.50;;;2.72;;
39486;SDS011;25173;50.430;18.926;2023-09-19T13:38:30;6.75;;;2.35;;
39486;SDS011;25173;50.430;18.926;2023-09-19T13:41:32;5.65;;;2.60;;
39486;SDS011;25173;50.430;18.926;2023-09-19T13:44:32;6.25;;;2.50;;
39486;SDS011;25173;50.430;18.926;2023-09-19T13:47:33;4.05;;;2.30;;
39486;SDS011;25173;50.430;18.926;2023-09-19T13:50:34;5.93;;;2.08;;
39486;SDS011;25173;50.430;18.926;2023-09-19T13:53:36;2.28;;;1.80;;
39486;SDS011;25173;50.430;18.926;2023-09-19T13:56:37;5.03;;;2.35;;
39486;SDS011;25173;50.430;18.926;2023-09-19T13:59:39;3.22;;;2.47;;
39486;SDS011;25173;50.430;18.926;2023-09-19T14:02:39;8.35;;;2.70;;
39486;SDS011;25173;50.430;18.926;2023-09-19T14:05:40;5.03;;;2.10;;
39486;SDS011;25173;50.430;18.926;2023-09-19T14:08:43;5.85;;;2.78;;
39486;SDS011;25173;50.430;18.926;2023-09-19T14:11:47;5.03;;;2.30;;
39486;SDS011;25173;50.430;18.926;2023-09-19T14:14:48;5.70;;;2.25;;
39486;SDS011;25173;50.430;18.926;2023-09-19T14:17:51;7.10;;;1.55;;
39486;SDS011;25173;50.430;18.926;2023-09-19T14:20:51;3.08;;;2.00;;
39486;SDS011;25173;50.430;18.926;2023-09-19T14:23:53;4.22;;;2.25;;
39486;SDS011;25173;50.430;18.926;2023-09-19T14:26:55;5.43;;;2.33;;
39486;SDS011;25173;50.430;18.926;2023-09-19T14:29:56;4.35;;;1.80;;
39486;SDS011;25173;50.430;18.926;2023-09-19T14:32:57;5.75;;;2.20;;
39486;SDS011;25173;50.430;18.926;2023-09-19T14:36:01;2.50;;;1.70;;
39486;SDS011;25173;50.430;18.926;2023-09-19T14:39:03;4.22;;;1.92;;
39486;SDS011;25173;50.430;18.926;2023-09-19T14:42:04;2.47;;;1.90;;
39486;SDS011;25173;50.430;18.926;2023-09-19T14:45:05;8.52;;;2.00;;
39486;SDS011;25173;50.430;18.926;2023-09-19T14:48:06;4.80;;;2.35;;
39486;SDS011;25173;50.430;18.926;2023-09-19T14:51:07;3.63;;;2.30;;
39486;SDS011;25173;50.430;18.926;2023-09-19T14:54:09;3.40;;;2.00;;
39486;SDS011;25173;50.430;18.926;2023-09-19T14:57:10;4.93;;;2.03;;
39486;SDS011;25173;50.430;18.926;2023-09-19T15:00:12;4.15;;;1.60;;
39486;SDS011;25173;50.430;18.926;2023-09-19T15:03:13;5.22;;;1.80;;
39486;SDS011;25173;50.430;18.926;2023-09-19T15:06:15;3.88;;;1.50;;
39486;SDS011;25173;50.430;18.926;2023-09-19T15:09:17;4.60;;;1.95;;
39486;SDS011;25173;50.430;18.926;2023-09-19T15:12:19;5.65;;;2.05;;
39486;SDS011;25173;50.430;18.926;2023-09-19T15:15:21;4.40;;;1.83;;
39486;SDS011;25173;50.430;18.926;2023-09-19T15:18:21;3.83;;;1.90;;
39486;SDS011;25173;50.430;18.926;2023-09-19T15:21:22;1.77;;;1.27;;
39486;SDS011;25173;50.430;18.926;2023-09-19T15:24:24;4.28;;;2.03;;
39486;SDS011;25173;50.430;18.926;2023-09-19T15:27:26;4.32;;;1.90;;
39486;SDS011;25173;50.430;18.926;2023-09-19T15:30:27;2.97;;;1.75;;
39486;SDS011;25173;50.430;18.926;2023-09-19T15:33:29;5.55;;;2.03;;
39486;SDS011;25173;50.430;18.926;2023-09-19T15:36:30;5.50;;;2.00;;
39486;SDS011;25173;50.430;18.926;2023-09-19T15:39:31;2.50;;;1.58;;
39486;SDS011;25173;50.430;18.926;2023-09-19T15:42:34;3.60;;;1.52;;
39486;SDS011;25173;50.430;18.926;2023-09-19T15:45:35;1.92;;;1.40;;
39486;SDS011;25173;50.430;18.926;2023-09-19T15:48:35;3.95;;;1.42;;
39486;SDS011;25173;50.430;18.926;2023-09-19T15:51:36;3.08;;;1.27;;
39486;SDS011;25173;50.430;18.926;2023-09-19T15:54:38;4.63;;;1.83;;
39486;SDS011;25173;50.430;18.926;2023-09-19T15:57:44;3.15;;;1.55;;
39486;SDS011;25173;50.430;18.926;2023-09-19T16:00:45;4.72;;;1.50;;
39486;SDS011;25173;50.430;18.926;2023-09-19T16:03:47;2.10;;;1.23;;
39486;SDS011;25173;50.430;18.926;2023-09-19T16:06:48;2.72;;;1.35;;
39486;SDS011;25173;50.430;18.926;2023-09-19T16:09:49;1.90;;;1.13;;
39486;SDS011;25173;50.430;18.926;2023-09-19T16:12:49;2.42;;;1.50;;
39486;SDS011;25173;50.430;18.926;2023-09-19T16:15:50;3.65;;;1.48;;
39486;SDS011;25173;50.430;18.926;2023-09-19T16:21:56;2.90;;;1.70;;
39486;SDS011;25173;50.430;18.926;2023-09-19T16:24:56;3.50;;;2.00;;
39486;SDS011;25173;50.430;18.926;2023-09-19T16:27:57;2.40;;;1.70;;
39486;SDS011;25173;50.430;18.926;2023-09-19T16:30:58;2.17;;;1.55;;
39486;SDS011;25173;50.430;18.926;2023-09-19T16:34:00;3.28;;;2.00;;
39486;SDS011;25173;50.430;18.926;2023-09-19T16:37:01;3.15;;;1.65;;
39486;SDS011;25173;50.430;18.926;2023-09-19T16:40:01;3.33;;;1.85;;
39486;SDS011;25173;50.430;18.926;2023-09-19T16:43:04;4.10;;;1.70;;
39486;SDS011;25173;50.430;18.926;2023-09-19T16:46:05;3.38;;;1.60;;
39486;SDS011;25173;50.430;18.926;2023-09-19T16:49:11;4.85;;;1.70;;
39486;SDS011;25173;50.430;18.926;2023-09-19T16:52:11;8.02;;;2.50;;
39486;SDS011;25173;50.430;18.926;2023-09-19T16:55:12;3.15;;;2.10;;
39486;SDS011;25173;50.430;18.926;2023-09-19T16:58:15;6.10;;;2.63;;
39486;SDS011;25173;50.430;18.926;2023-09-19T17:01:17;4.78;;;2.83;;
39486;SDS011;25173;50.430;18.926;2023-09-19T17:04:24;7.20;;;3.30;;
39486;SDS011;25173;50.430;18.926;2023-09-19T17:07:24;3.30;;;1.95;;
39486;SDS011;25173;50.430;18.926;2023-09-19T17:10:27;4.55;;;2.25;;
39486;SDS011;25173;50.430;18.926;2023-09-19T17:13:31;4.30;;;2.45;;
39486;SDS011;25173;50.430;18.926;2023-09-19T17:16:33;10.07;;;2.22;;
39486;SDS011;25173;50.430;18.926;2023-09-19T17:19:34;9.10;;;4.70;;
39486;SDS011;25173;50.430;18.926;2023-09-19T17:22:35;149.45;;;76.95;;
39486;SDS011;25173;50.430;18.926;2023-09-19T17:25:36;41.75;;;18.33;;
39486;SDS011;25173;50.430;18.926;2023-09-19T17:28:37;20.23;;;11.13;;
39486;SDS011;25173;50.430;18.926;2023-09-19T17:31:38;18.95;;;10.65;;
39486;SDS011;25173;50.430;18.926;2023-09-19T17:34:39;22.50;;;10.10;;
39486;SDS011;25173;50.430;18.926;2023-09-19T17:37:40;16.35;;;9.25;;
39486;SDS011;25173;50.430;18.926;2023-09-19T17:40:41;18.98;;;8.50;;
39486;SDS011;25173;50.430;18.926;2023-09-19T17:43:44;21.58;;;11.13;;
39486;SDS011;25173;50.430;18.926;2023-09-19T17:46:47;19.50;;;13.45;;
39486;SDS011;25173;50.430;18.926;2023-09-19T17:49:48;20.38;;;12.63;;
39486;SDS011;25173;50.430;18.926;2023-09-19T17:52:52;23.60;;;13.30;;
39486;SDS011;25173;50.430;18.926;2023-09-19T17:55:52;17.42;;;9.20;;
39486;SDS011;25173;50.430;18.926;2023-09-19T17:58:53;8.20;;;5.43;;
39486;SDS011;25173;50.430;18.926;2023-09-19T18:01:56;8.85;;;4.90;;
39486;SDS011;25173;50.430;18.926;2023-09-19T18:04:57;9.80;;;5.80;;
39486;SDS011;25173;50.430;18.926;2023-09-19T18:07:58;9.30;;;6.35;;
39486;SDS011;25173;50.430;18.926;2023-09-19T18:11:03;8.98;;;6.30;;
39486;SDS011;25173;50.430;18.926;2023-09-19T18:14:05;13.90;;;6.18;;
39486;SDS011;25173;50.430;18.926;2023-09-19T18:17:05;12.18;;;9.25;;
39486;SDS011;25173;50.430;18.926;2023-09-19T18:20:07;14.27;;;9.38;;
39486;SDS011;25173;50.430;18.926;2023-09-19T18:23:10;13.93;;;8.73;;
39486;SDS011;25173;50.430;18.926;2023-09-19T18:26:11;17.27;;;9.10;;
39486;SDS011;25173;50.430;18.926;2023-09-19T18:29:14;13.88;;;8.35;;
39486;SDS011;25173;50.430;18.926;2023-09-19T18:32:14;17.63;;;8.60;;
39486;SDS011;25173;50.430;18.926;2023-09-19T18:35:15;12.55;;;7.80;;